Sterrett, Alabama
Current Conditions -  °F | °C
As of 1:53 PM on Friday 19 Dec 2014 (Local Time) from KBHM Reporting Station
Overcast Overcast  
Wind Chill: 44°   Ceiling: 25000
Heat Index: 48°   Visibility: 10mi
Dew Point: 37°   Wind: 9mph
Humidity: 66%   Direction: 330°NNW
Pressure: 30.17"   Gusts: NA
Location:  33.45°N, 86.48°W
Report Text: KBHM 191953Z 33008KT 10SM FEW120 OVC250 09/03 A3017 RMK AO2 SLP218 T00890028
Loading
Personal Weather Stations






























Interactive Weather Map New forecast layout! Learn more

10-Day Weather Forecast

Advertisements
Track Severe Weather on mobile